sensor_id;sensor_type;location;lat;lon;timestamp;P1;durP1;ratioP1;P2;durP2;ratioP2
31692;SDS011;37436;53.230;6.614;2023-05-10T00:01:54;17.20;;;8.10;;
31692;SDS011;37436;53.230;6.614;2023-05-10T00:04:20;22.27;;;9.40;;
31692;SDS011;37436;53.230;6.614;2023-05-10T00:06:47;25.00;;;10.07;;
31692;SDS011;37436;53.230;6.614;2023-05-10T00:09:13;21.50;;;9.30;;
31692;SDS011;37436;53.230;6.614;2023-05-10T00:11:40;29.23;;;10.98;;
31692;SDS011;37436;53.230;6.614;2023-05-10T00:14:06;14.60;;;7.00;;
31692;SDS011;37436;53.230;6.614;2023-05-10T00:16:33;23.60;;;9.60;;
31692;SDS011;37436;53.230;6.614;2023-05-10T00:19:14;32.88;;;10.70;;
31692;SDS011;37436;53.230;6.614;2023-05-10T00:21:40;25.85;;;11.25;;
31692;SDS011;37436;53.230;6.614;2023-05-10T00:24:16;35.30;;;11.68;;
31692;SDS011;37436;53.230;6.614;2023-05-10T00:26:42;30.88;;;11.90;;
31692;SDS011;37436;53.230;6.614;2023-05-10T00:29:09;27.67;;;10.98;;
31692;SDS011;37436;53.230;6.614;2023-05-10T00:34:27;28.08;;;9.90;;
31692;SDS011;37436;53.230;6.614;2023-05-10T00:36:58;28.38;;;10.07;;
31692;SDS011;37436;53.230;6.614;2023-05-10T00:39:34;24.08;;;8.32;;
31692;SDS011;37436;53.230;6.614;2023-05-10T00:42:05;26.17;;;9.85;;
31692;SDS011;37436;53.230;6.614;2023-05-10T00:44:32;21.73;;;9.18;;
31692;SDS011;37436;53.230;6.614;2023-05-10T00:47:01;17.52;;;9.02;;
31692;SDS011;37436;53.230;6.614;2023-05-10T00:49:28;22.58;;;8.07;;
31692;SDS011;37436;53.230;6.614;2023-05-10T00:51:54;31.02;;;9.90;;
31692;SDS011;37436;53.230;6.614;2023-05-10T00:54:20;21.77;;;8.60;;
31692;SDS011;37436;53.230;6.614;2023-05-10T00:56:50;25.40;;;9.52;;
31692;SDS011;37436;53.230;6.614;2023-05-10T00:59:17;25.08;;;9.18;;
31692;SDS011;37436;53.230;6.614;2023-05-10T01:01:53;22.67;;;8.40;;
31692;SDS011;37436;53.230;6.614;2023-05-10T01:04:22;19.95;;;7.43;;
31692;SDS011;37436;53.230;6.614;2023-05-10T01:07:00;17.15;;;7.15;;
31692;SDS011;37436;53.230;6.614;2023-05-10T01:09:26;22.08;;;7.63;;
31692;SDS011;37436;53.230;6.614;2023-05-10T01:11:53;16.63;;;6.07;;
31692;SDS011;37436;53.230;6.614;2023-05-10T01:14:20;22.50;;;7.55;;
31692;SDS011;37436;53.230;6.614;2023-05-10T01:16:47;21.02;;;7.90;;
31692;SDS011;37436;53.230;6.614;2023-05-10T01:19:19;25.08;;;8.40;;
31692;SDS011;37436;53.230;6.614;2023-05-10T01:21:49;17.75;;;7.20;;
31692;SDS011;37436;53.230;6.614;2023-05-10T01:33:00;23.38;;;9.38;;
31692;SDS011;37436;53.230;6.614;2023-05-10T01:35:16;29.15;;;9.98;;
31692;SDS011;37436;53.230;6.614;2023-05-10T01:37:47;15.45;;;6.20;;
31692;SDS011;37436;53.230;6.614;2023-05-10T01:40:20;28.85;;;9.52;;
31692;SDS011;37436;53.230;6.614;2023-05-10T01:42:51;29.25;;;9.80;;
31692;SDS011;37436;53.230;6.614;2023-05-10T01:47:50;33.50;;;10.80;;
31692;SDS011;37436;53.230;6.614;2023-05-10T01:50:18;37.85;;;10.73;;
31692;SDS011;37436;53.230;6.614;2023-05-10T01:52:47;32.67;;;10.35;;
31692;SDS011;37436;53.230;6.614;2023-05-10T01:55:18;28.08;;;9.98;;
31692;SDS011;37436;53.230;6.614;2023-05-10T01:57:46;29.30;;;10.00;;
31692;SDS011;37436;53.230;6.614;2023-05-10T02:00:13;21.92;;;9.68;;
31692;SDS011;37436;53.230;6.614;2023-05-10T02:02:42;23.33;;;9.63;;
31692;SDS011;37436;53.230;6.614;2023-05-10T02:05:20;28.45;;;10.60;;
31692;SDS011;37436;53.230;6.614;2023-05-10T02:07:47;32.00;;;10.68;;
31692;SDS011;37436;53.230;6.614;2023-05-10T02:10:14;26.55;;;9.70;;
31692;SDS011;37436;53.230;6.614;2023-05-10T02:12:44;30.27;;;12.00;;
31692;SDS011;37436;53.230;6.614;2023-05-10T02:15:20;30.98;;;10.82;;
31692;SDS011;37436;53.230;6.614;2023-05-10T02:17:47;24.30;;;10.80;;
31692;SDS011;37436;53.230;6.614;2023-05-10T02:20:16;27.17;;;9.98;;
31692;SDS011;37436;53.230;6.614;2023-05-10T02:22:45;29.80;;;9.95;;
31692;SDS011;37436;53.230;6.614;2023-05-10T02:25:13;25.02;;;10.18;;
31692;SDS011;37436;53.230;6.614;2023-05-10T02:27:41;30.02;;;10.35;;
31692;SDS011;37436;53.230;6.614;2023-05-10T02:30:10;29.80;;;10.75;;
31692;SDS011;37436;53.230;6.614;2023-05-10T02:32:40;29.67;;;9.30;;
31692;SDS011;37436;53.230;6.614;2023-05-10T02:35:08;24.98;;;10.40;;
31692;SDS011;37436;53.230;6.614;2023-05-10T02:37:36;26.17;;;8.73;;
31692;SDS011;37436;53.230;6.614;2023-05-10T02:40:03;29.55;;;10.80;;
31692;SDS011;37436;53.230;6.614;2023-05-10T02:42:33;31.42;;;11.02;;
31692;SDS011;37436;53.230;6.614;2023-05-10T02:45:08;33.03;;;10.48;;
31692;SDS011;37436;53.230;6.614;2023-05-10T02:47:36;31.55;;;11.55;;
31692;SDS011;37436;53.230;6.614;2023-05-10T02:50:02;45.83;;;10.57;;
31692;SDS011;37436;53.230;6.614;2023-05-10T02:52:30;25.48;;;10.02;;
31692;SDS011;37436;53.230;6.614;2023-05-10T02:55:15;36.78;;;10.73;;
31692;SDS011;37436;53.230;6.614;2023-05-10T02:57:48;36.67;;;11.52;;
31692;SDS011;37436;53.230;6.614;2023-05-10T03:00:20;48.58;;;14.00;;
31692;SDS011;37436;53.230;6.614;2023-05-10T03:02:48;44.67;;;13.32;;
31692;SDS011;37436;53.230;6.614;2023-05-10T03:05:20;41.92;;;12.32;;
31692;SDS011;37436;53.230;6.614;2023-05-10T03:07:47;44.72;;;13.68;;
31692;SDS011;37436;53.230;6.614;2023-05-10T03:10:14;41.40;;;12.98;;
31692;SDS011;37436;53.230;6.614;2023-05-10T03:13:01;41.88;;;13.63;;
31692;SDS011;37436;53.230;6.614;2023-05-10T03:15:47;44.42;;;14.05;;
31692;SDS011;37436;53.230;6.614;2023-05-10T03:18:21;45.95;;;15.23;;
31692;SDS011;37436;53.230;6.614;2023-05-10T03:20:49;41.33;;;13.90;;
31692;SDS011;37436;53.230;6.614;2023-05-10T03:23:25;53.72;;;15.45;;
31692;SDS011;37436;53.230;6.614;2023-05-10T03:25:52;44.65;;;13.02;;
31692;SDS011;37436;53.230;6.614;2023-05-10T03:28:20;48.83;;;16.08;;
31692;SDS011;37436;53.230;6.614;2023-05-10T03:30:49;53.40;;;15.35;;
31692;SDS011;37436;53.230;6.614;2023-05-10T03:33:18;53.65;;;16.90;;
31692;SDS011;37436;53.230;6.614;2023-05-10T03:35:45;53.05;;;16.05;;
31692;SDS011;37436;53.230;6.614;2023-05-10T03:38:31;52.60;;;16.58;;
31692;SDS011;37436;53.230;6.614;2023-05-10T03:40:57;48.58;;;15.93;;
31692;SDS011;37436;53.230;6.614;2023-05-10T03:43:24;50.30;;;16.40;;
31692;SDS011;37436;53.230;6.614;2023-05-10T03:46:06;48.28;;;14.98;;
31692;SDS011;37436;53.230;6.614;2023-05-10T03:48:32;55.40;;;15.02;;
31692;SDS011;37436;53.230;6.614;2023-05-10T03:50:59;60.13;;;14.55;;
31692;SDS011;37436;53.230;6.614;2023-05-10T03:53:46;53.83;;;17.08;;
31692;SDS011;37436;53.230;6.614;2023-05-10T03:58:37;54.85;;;15.93;;
31692;SDS011;37436;53.230;6.614;2023-05-10T04:01:04;49.55;;;13.93;;
31692;SDS011;37436;53.230;6.614;2023-05-10T04:03:37;63.25;;;17.70;;
31692;SDS011;37436;53.230;6.614;2023-05-10T04:06:03;68.20;;;19.08;;
31692;SDS011;37436;53.230;6.614;2023-05-10T04:08:37;70.88;;;18.90;;
31692;SDS011;37436;53.230;6.614;2023-05-10T04:11:04;62.72;;;17.63;;
31692;SDS011;37436;53.230;6.614;2023-05-10T04:13:32;52.42;;;15.40;;
31692;SDS011;37436;53.230;6.614;2023-05-10T04:15:58;47.58;;;13.55;;
31692;SDS011;37436;53.230;6.614;2023-05-10T04:18:25;45.22;;;12.63;;
31692;SDS011;37436;53.230;6.614;2023-05-10T04:20:51;41.40;;;11.30;;
31692;SDS011;37436;53.230;6.614;2023-05-10T04:23:28;37.15;;;11.75;;
31692;SDS011;37436;53.230;6.614;2023-05-10T04:26:05;40.10;;;10.55;;
31692;SDS011;37436;53.230;6.614;2023-05-10T04:28:37;30.60;;;10.48;;
31692;SDS011;37436;53.230;6.614;2023-05-10T04:31:14;27.15;;;10.32;;
31692;SDS011;37436;53.230;6.614;2023-05-10T04:33:53;21.35;;;9.07;;
31692;SDS011;37436;53.230;6.614;2023-05-10T04:39:01;22.67;;;7.50;;
31692;SDS011;37436;53.230;6.614;2023-05-10T04:41:35;22.23;;;7.65;;
31692;SDS011;37436;53.230;6.614;2023-05-10T04:44:01;21.08;;;7.10;;
31692;SDS011;37436;53.230;6.614;2023-05-10T04:46:27;28.58;;;10.05;;
31692;SDS011;37436;53.230;6.614;2023-05-10T04:48:53;18.27;;;7.28;;
31692;SDS011;37436;53.230;6.614;2023-05-10T04:51:20;21.38;;;7.50;;
31692;SDS011;37436;53.230;6.614;2023-05-10T04:53:46;21.20;;;7.50;;
31692;SDS011;37436;53.230;6.614;2023-05-10T04:56:13;19.75;;;7.82;;
31692;SDS011;37436;53.230;6.614;2023-05-10T04:58:40;18.17;;;7.47;;
31692;SDS011;37436;53.230;6.614;2023-05-10T05:01:08;23.58;;;8.18;;
31692;SDS011;37436;53.230;6.614;2023-05-10T05:03:36;24.27;;;8.80;;
31692;SDS011;37436;53.230;6.614;2023-05-10T05:06:08;11.88;;;5.68;;
31692;SDS011;37436;53.230;6.614;2023-05-10T05:08:36;16.73;;;6.60;;
31692;SDS011;37436;53.230;6.614;2023-05-10T05:11:02;17.48;;;7.43;;
31692;SDS011;37436;53.230;6.614;2023-05-10T05:13:28;12.88;;;5.88;;
31692;SDS011;37436;53.230;6.614;2023-05-10T05:15:54;18.65;;;5.38;;
31692;SDS011;37436;53.230;6.614;2023-05-10T05:18:21;12.13;;;5.75;;
31692;SDS011;37436;53.230;6.614;2023-05-10T05:20:47;17.52;;;6.28;;
31692;SDS011;37436;53.230;6.614;2023-05-10T05:26:00;16.13;;;6.68;;
31692;SDS011;37436;53.230;6.614;2023-05-10T05:28:35;12.77;;;4.85;;
31692;SDS011;37436;53.230;6.614;2023-05-10T05:33:28;14.50;;;5.80;;
31692;SDS011;37436;53.230;6.614;2023-05-10T05:35:59;11.88;;;5.70;;
31692;SDS011;37436;53.230;6.614;2023-05-10T05:38:38;14.82;;;6.00;;
31692;SDS011;37436;53.230;6.614;2023-05-10T05:41:04;19.70;;;7.15;;
31692;SDS011;37436;53.230;6.614;2023-05-10T05:43:31;15.63;;;6.45;;
31692;SDS011;37436;53.230;6.614;2023-05-10T05:46:17;18.30;;;6.97;;
31692;SDS011;37436;53.230;6.614;2023-05-10T05:48:43;14.80;;;6.55;;
31692;SDS011;37436;53.230;6.614;2023-05-10T05:51:10;9.60;;;5.32;;
31692;SDS011;37436;53.230;6.614;2023-05-10T05:53:40;12.98;;;6.65;;
31692;SDS011;37436;53.230;6.614;2023-05-10T05:56:10;14.65;;;5.80;;
31692;SDS011;37436;53.230;6.614;2023-05-10T05:58:37;16.70;;;6.28;;
31692;SDS011;37436;53.230;6.614;2023-05-10T06:01:03;15.40;;;5.68;;
31692;SDS011;37436;53.230;6.614;2023-05-10T06:03:45;10.50;;;4.55;;
31692;SDS011;37436;53.230;6.614;2023-05-10T06:06:11;21.75;;;6.25;;
31692;SDS011;37436;53.230;6.614;2023-05-10T06:08:47;11.18;;;4.75;;
31692;SDS011;37436;53.230;6.614;2023-05-10T06:11:15;10.13;;;5.13;;
31692;SDS011;37436;53.230;6.614;2023-05-10T06:13:41;9.98;;;3.58;;
31692;SDS011;37436;53.230;6.614;2023-05-10T06:16:10;10.82;;;2.97;;
31692;SDS011;37436;53.230;6.614;2023-05-10T06:18:57;3.25;;;2.38;;
31692;SDS011;37436;53.230;6.614;2023-05-10T06:21:42;4.45;;;2.03;;
31692;SDS011;37436;53.230;6.614;2023-05-10T06:24:13;3.78;;;2.25;;
31692;SDS011;37436;53.230;6.614;2023-05-10T06:27:03;4.07;;;1.73;;
31692;SDS011;37436;53.230;6.614;2023-05-10T06:29:29;4.18;;;2.08;;
31692;SDS011;37436;53.230;6.614;2023-05-10T06:31:56;6.03;;;1.75;;
31692;SDS011;37436;53.230;6.614;2023-05-10T06:34:42;3.97;;;1.85;;
31692;SDS011;37436;53.230;6.614;2023-05-10T06:37:09;6.82;;;1.58;;
31692;SDS011;37436;53.230;6.614;2023-05-10T06:39:37;3.40;;;1.90;;
31692;SDS011;37436;53.230;6.614;2023-05-10T06:42:13;6.50;;;2.85;;
31692;SDS011;37436;53.230;6.614;2023-05-10T06:44:40;16.10;;;7.10;;
31692;SDS011;37436;53.230;6.614;2023-05-10T06:47:06;10.23;;;5.00;;
31692;SDS011;37436;53.230;6.614;2023-05-10T06:49:33;25.27;;;6.82;;
31692;SDS011;37436;53.230;6.614;2023-05-10T06:51:59;22.98;;;7.07;;
31692;SDS011;37436;53.230;6.614;2023-05-10T06:54:26;26.55;;;8.68;;
31692;SDS011;37436;53.230;6.614;2023-05-10T06:59:33;20.88;;;7.82;;
31692;SDS011;37436;53.230;6.614;2023-05-10T07:02:01;32.20;;;11.10;;
31692;SDS011;37436;53.230;6.614;2023-05-10T07:04:28;8.00;;;4.05;;
31692;SDS011;37436;53.230;6.614;2023-05-10T07:06:54;30.40;;;10.30;;
31692;SDS011;37436;53.230;6.614;2023-05-10T07:09:21;36.72;;;11.52;;
31692;SDS011;37436;53.230;6.614;2023-05-10T07:11:49;39.88;;;11.15;;
31692;SDS011;37436;53.230;6.614;2023-05-10T07:14:16;27.27;;;8.25;;
31692;SDS011;37436;53.230;6.614;2023-05-10T07:16:58;34.83;;;10.65;;
31692;SDS011;37436;53.230;6.614;2023-05-10T07:19:25;35.55;;;11.07;;
31692;SDS011;37436;53.230;6.614;2023-05-10T07:21:52;32.03;;;9.45;;
31692;SDS011;37436;53.230;6.614;2023-05-10T07:24:32;29.85;;;9.55;;
31692;SDS011;37436;53.230;6.614;2023-05-10T07:26:59;30.70;;;10.05;;
31692;SDS011;37436;53.230;6.614;2023-05-10T07:29:25;31.25;;;9.93;;
31692;SDS011;37436;53.230;6.614;2023-05-10T07:31:55;30.33;;;9.35;;
31692;SDS011;37436;53.230;6.614;2023-05-10T07:34:25;19.40;;;5.82;;
31692;SDS011;37436;53.230;6.614;2023-05-10T07:36:51;19.98;;;6.72;;
31692;SDS011;37436;53.230;6.614;2023-05-10T07:39:20;16.70;;;6.28;;
31692;SDS011;37436;53.230;6.614;2023-05-10T07:41:51;13.05;;;5.40;;
31692;SDS011;37436;53.230;6.614;2023-05-10T07:44:17;14.07;;;5.20;;
31692;SDS011;37436;53.230;6.614;2023-05-10T07:46:45;9.80;;;3.90;;
31692;SDS011;37436;53.230;6.614;2023-05-10T07:49:40;15.18;;;4.47;;
31692;SDS011;37436;53.230;6.614;2023-05-10T07:52:05;13.43;;;3.85;;
31692;SDS011;37436;53.230;6.614;2023-05-10T07:54:32;6.60;;;3.83;;
31692;SDS011;37436;53.230;6.614;2023-05-10T07:56:59;8.15;;;3.70;;
31692;SDS011;37436;53.230;6.614;2023-05-10T07:59:25;10.82;;;3.38;;
31692;SDS011;37436;53.230;6.614;2023-05-10T08:01:52;9.57;;;3.75;;
31692;SDS011;37436;53.230;6.614;2023-05-10T08:04:19;8.60;;;3.78;;
31692;SDS011;37436;53.230;6.614;2023-05-10T08:06:45;6.43;;;4.05;;
31692;SDS011;37436;53.230;6.614;2023-05-10T08:09:11;9.98;;;4.03;;
31692;SDS011;37436;53.230;6.614;2023-05-10T08:11:38;12.93;;;5.57;;
31692;SDS011;37436;53.230;6.614;2023-05-10T08:14:04;12.63;;;5.43;;
31692;SDS011;37436;53.230;6.614;2023-05-10T08:16:30;10.52;;;5.63;;
31692;SDS011;37436;53.230;6.614;2023-05-10T08:18:57;9.10;;;4.60;;
31692;SDS011;37436;53.230;6.614;2023-05-10T08:21:23;11.38;;;5.18;;
31692;SDS011;37436;53.230;6.614;2023-05-10T08:23:51;16.20;;;5.82;;
31692;SDS011;37436;53.230;6.614;2023-05-10T08:26:17;10.98;;;5.40;;
31692;SDS011;37436;53.230;6.614;2023-05-10T08:28:43;21.13;;;6.82;;
31692;SDS011;37436;53.230;6.614;2023-05-10T08:31:16;20.25;;;5.50;;
31692;SDS011;37436;53.230;6.614;2023-05-10T08:33:45;17.02;;;6.50;;
31692;SDS011;37436;53.230;6.614;2023-05-10T08:36:16;12.50;;;4.93;;
31692;SDS011;37436;53.230;6.614;2023-05-10T08:38:47;9.23;;;5.03;;
31692;SDS011;37436;53.230;6.614;2023-05-10T08:41:14;8.70;;;3.75;;
31692;SDS011;37436;53.230;6.614;2023-05-10T08:43:47;8.55;;;4.28;;
31692;SDS011;37436;53.230;6.614;2023-05-10T08:46:34;12.27;;;5.65;;
31692;SDS011;37436;53.230;6.614;2023-05-10T08:49:05;8.85;;;4.53;;
31692;SDS011;37436;53.230;6.614;2023-05-10T08:51:40;12.52;;;5.97;;
31692;SDS011;37436;53.230;6.614;2023-05-10T08:54:08;10.05;;;4.97;;
31692;SDS011;37436;53.230;6.614;2023-05-10T08:56:39;17.38;;;6.35;;
31692;SDS011;37436;53.230;6.614;2023-05-10T08:59:05;10.95;;;5.20;;
31692;SDS011;37436;53.230;6.614;2023-05-10T09:01:32;11.40;;;5.30;;
31692;SDS011;37436;53.230;6.614;2023-05-10T09:03:58;13.85;;;4.82;;
31692;SDS011;37436;53.230;6.614;2023-05-10T09:06:25;13.05;;;4.55;;
31692;SDS011;37436;53.230;6.614;2023-05-10T09:08:51;16.63;;;4.20;;
31692;SDS011;37436;53.230;6.614;2023-05-10T09:11:24;10.65;;;4.85;;
31692;SDS011;37436;53.230;6.614;2023-05-10T09:16:21;9.98;;;4.38;;
31692;SDS011;37436;53.230;6.614;2023-05-10T09:18:48;10.73;;;4.88;;
31692;SDS011;37436;53.230;6.614;2023-05-10T09:21:15;11.23;;;4.32;;
31692;SDS011;37436;53.230;6.614;2023-05-10T09:23:45;11.63;;;5.10;;
31692;SDS011;37436;53.230;6.614;2023-05-10T09:26:22;7.90;;;4.00;;
31692;SDS011;37436;53.230;6.614;2023-05-10T09:28:56;10.35;;;4.63;;
31692;SDS011;37436;53.230;6.614;2023-05-10T09:31:45;6.47;;;3.85;;
31692;SDS011;37436;53.230;6.614;2023-05-10T09:34:16;9.68;;;5.60;;
31692;SDS011;37436;53.230;6.614;2023-05-10T09:36:52;8.63;;;4.82;;
31692;SDS011;37436;53.230;6.614;2023-05-10T09:39:20;16.35;;;6.22;;
31692;SDS011;37436;53.230;6.614;2023-05-10T09:41:53;12.18;;;5.93;;
31692;SDS011;37436;53.230;6.614;2023-05-10T09:44:20;11.63;;;5.13;;
31692;SDS011;37436;53.230;6.614;2023-05-10T09:46:48;10.68;;;4.97;;
31692;SDS011;37436;53.230;6.614;2023-05-10T09:49:16;10.38;;;5.53;;
31692;SDS011;37436;53.230;6.614;2023-05-10T09:54:30;10.25;;;5.57;;
31692;SDS011;37436;53.230;6.614;2023-05-10T10:00:20;12.05;;;4.75;;
31692;SDS011;37436;53.230;6.614;2023-05-10T10:02:47;9.05;;;4.93;;
31692;SDS011;37436;53.230;6.614;2023-05-10T10:05:31;9.93;;;4.80;;
31692;SDS011;37436;53.230;6.614;2023-05-10T10:08:11;12.05;;;4.78;;
31692;SDS011;37436;53.230;6.614;2023-05-10T10:10:38;12.32;;;4.70;;
31692;SDS011;37436;53.230;6.614;2023-05-10T10:13:12;8.15;;;4.70;;
31692;SDS011;37436;53.230;6.614;2023-05-10T10:15:39;10.52;;;4.57;;
31692;SDS011;37436;53.230;6.614;2023-05-10T10:18:17;7.15;;;4.20;;
31692;SDS011;37436;53.230;6.614;2023-05-10T10:23:10;6.30;;;3.15;;
31692;SDS011;37436;53.230;6.614;2023-05-10T10:25:37;6.85;;;3.72;;
31692;SDS011;37436;53.230;6.614;2023-05-10T10:28:10;4.20;;;2.90;;
31692;SDS011;37436;53.230;6.614;2023-05-10T10:36:06;4.20;;;2.92;;
31692;SDS011;37436;53.230;6.614;2023-05-10T10:39:15;4.60;;;2.53;;
31692;SDS011;37436;53.230;6.614;2023-05-10T10:41:37;5.13;;;3.13;;
31692;SDS011;37436;53.230;6.614;2023-05-10T10:44:33;6.00;;;2.90;;
31692;SDS011;37436;53.230;6.614;2023-05-10T10:50:06;5.88;;;3.15;;
31692;SDS011;37436;53.230;6.614;2023-05-10T10:52:38;4.90;;;2.97;;
31692;SDS011;37436;53.230;6.614;2023-05-10T11:03:09;4.97;;;3.22;;
31692;SDS011;37436;53.230;6.614;2023-05-10T11:08:16;6.53;;;4.18;;
31692;SDS011;37436;53.230;6.614;2023-05-10T11:13:50;8.88;;;3.85;;
31692;SDS011;37436;53.230;6.614;2023-05-10T11:16:18;8.70;;;4.35;;
31692;SDS011;37436;53.230;6.614;2023-05-10T11:19:02;6.68;;;4.43;;
31692;SDS011;37436;53.230;6.614;2023-05-10T11:21:32;12.90;;;5.20;;
31692;SDS011;37436;53.230;6.614;2023-05-10T11:23:59;8.57;;;5.15;;
31692;SDS011;37436;53.230;6.614;2023-05-10T11:26:34;9.35;;;5.00;;
31692;SDS011;37436;53.230;6.614;2023-05-10T11:29:01;14.48;;;6.20;;
31692;SDS011;37436;53.230;6.614;2023-05-10T11:31:29;12.95;;;7.50;;
31692;SDS011;37436;53.230;6.614;2023-05-10T11:33:56;12.90;;;6.60;;
31692;SDS011;37436;53.230;6.614;2023-05-10T11:36:25;9.98;;;5.47;;
31692;SDS011;37436;53.230;6.614;2023-05-10T11:38:52;10.32;;;6.00;;
31692;SDS011;37436;53.230;6.614;2023-05-10T11:41:19;11.88;;;5.80;;
31692;SDS011;37436;53.230;6.614;2023-05-10T11:44:05;12.63;;;6.20;;
31692;SDS011;37436;53.230;6.614;2023-05-10T11:46:31;9.70;;;6.47;;
31692;SDS011;37436;53.230;6.614;2023-05-10T11:49:00;11.80;;;6.93;;
31692;SDS011;37436;53.230;6.614;2023-05-10T11:51:29;17.42;;;6.95;;
31692;SDS011;37436;53.230;6.614;2023-05-10T11:53:58;8.50;;;6.07;;
31692;SDS011;37436;53.230;6.614;2023-05-10T11:56:32;14.13;;;7.88;;
31692;SDS011;37436;53.230;6.614;2023-05-10T11:58:58;11.93;;;7.05;;
31692;SDS011;37436;53.230;6.614;2023-05-10T12:01:34;11.43;;;6.78;;
31692;SDS011;37436;53.230;6.614;2023-05-10T12:04:00;13.82;;;6.50;;
31692;SDS011;37436;53.230;6.614;2023-05-10T12:06:28;15.48;;;6.55;;
31692;SDS011;37436;53.230;6.614;2023-05-10T12:08:59;16.17;;;7.03;;
31692;SDS011;37436;53.230;6.614;2023-05-10T12:11:25;11.48;;;6.35;;
31692;SDS011;37436;53.230;6.614;2023-05-10T12:14:11;12.48;;;7.25;;
31692;SDS011;37436;53.230;6.614;2023-05-10T12:16:40;15.52;;;7.00;;
31692;SDS011;37436;53.230;6.614;2023-05-10T12:19:11;13.98;;;7.35;;
31692;SDS011;37436;53.230;6.614;2023-05-10T12:21:47;11.43;;;6.55;;
31692;SDS011;37436;53.230;6.614;2023-05-10T12:24:33;16.75;;;7.32;;
31692;SDS011;37436;53.230;6.614;2023-05-10T12:27:07;18.20;;;7.10;;
31692;SDS011;37436;53.230;6.614;2023-05-10T12:29:34;16.23;;;7.03;;
31692;SDS011;37436;53.230;6.614;2023-05-10T12:32:04;13.75;;;7.43;;
31692;SDS011;37436;53.230;6.614;2023-05-10T12:34:31;14.02;;;7.93;;
31692;SDS011;37436;53.230;6.614;2023-05-10T12:37:07;12.75;;;8.07;;
31692;SDS011;37436;53.230;6.614;2023-05-10T12:39:40;17.40;;;8.20;;
31692;SDS011;37436;53.230;6.614;2023-05-10T12:42:13;14.82;;;8.40;;
31692;SDS011;37436;53.230;6.614;2023-05-10T12:44:48;17.65;;;9.32;;
31692;SDS011;37436;53.230;6.614;2023-05-10T12:47:16;15.15;;;8.55;;
31692;SDS011;37436;53.230;6.614;2023-05-10T12:49:42;17.95;;;8.25;;
31692;SDS011;37436;53.230;6.614;2023-05-10T12:52:12;16.33;;;8.85;;
31692;SDS011;37436;53.230;6.614;2023-05-10T12:54:39;13.93;;;7.88;;
31692;SDS011;37436;53.230;6.614;2023-05-10T12:57:05;17.60;;;8.30;;
31692;SDS011;37436;53.230;6.614;2023-05-10T12:59:32;15.30;;;8.25;;
31692;SDS011;37436;53.230;6.614;2023-05-10T13:01:58;13.90;;;8.38;;
31692;SDS011;37436;53.230;6.614;2023-05-10T13:04:24;12.90;;;8.10;;
31692;SDS011;37436;53.230;6.614;2023-05-10T13:06:50;14.48;;;8.50;;
31692;SDS011;37436;53.230;6.614;2023-05-10T13:09:16;13.55;;;8.00;;
31692;SDS011;37436;53.230;6.614;2023-05-10T13:11:46;15.00;;;7.25;;
31692;SDS011;37436;53.230;6.614;2023-05-10T13:14:13;17.13;;;8.05;;
31692;SDS011;37436;53.230;6.614;2023-05-10T13:16:41;11.75;;;7.05;;
31692;SDS011;37436;53.230;6.614;2023-05-10T13:19:17;11.80;;;6.85;;
31692;SDS011;37436;53.230;6.614;2023-05-10T13:21:44;9.95;;;6.38;;
31692;SDS011;37436;53.230;6.614;2023-05-10T13:24:11;10.13;;;6.55;;
31692;SDS011;37436;53.230;6.614;2023-05-10T13:26:39;11.45;;;6.75;;
31692;SDS011;37436;53.230;6.614;2023-05-10T13:29:32;11.73;;;6.68;;
31692;SDS011;37436;53.230;6.614;2023-05-10T13:32:03;12.93;;;6.85;;
31692;SDS011;37436;53.230;6.614;2023-05-10T13:34:43;9.55;;;6.07;;
31692;SDS011;37436;53.230;6.614;2023-05-10T13:37:09;12.55;;;6.60;;
31692;SDS011;37436;53.230;6.614;2023-05-10T13:39:45;13.35;;;7.22;;
31692;SDS011;37436;53.230;6.614;2023-05-10T13:42:11;12.52;;;7.70;;
31692;SDS011;37436;53.230;6.614;2023-05-10T13:44:47;11.70;;;7.28;;
31692;SDS011;37436;53.230;6.614;2023-05-10T13:47:20;14.88;;;6.43;;
31692;SDS011;37436;53.230;6.614;2023-05-10T13:49:47;12.25;;;7.15;;
31692;SDS011;37436;53.230;6.614;2023-05-10T13:52:16;12.43;;;6.38;;
31692;SDS011;37436;53.230;6.614;2023-05-10T13:54:43;10.93;;;6.28;;
31692;SDS011;37436;53.230;6.614;2023-05-10T13:57:12;13.77;;;6.40;;
31692;SDS011;37436;53.230;6.614;2023-05-10T13:59:39;14.30;;;6.38;;
31692;SDS011;37436;53.230;6.614;2023-05-10T14:02:11;10.55;;;6.50;;
31692;SDS011;37436;53.230;6.614;2023-05-10T14:04:47;11.23;;;6.10;;
31692;SDS011;37436;53.230;6.614;2023-05-10T14:07:35;10.02;;;5.90;;
31692;SDS011;37436;53.230;6.614;2023-05-10T14:10:01;11.18;;;6.53;;
31692;SDS011;37436;53.230;6.614;2023-05-10T14:12:27;13.02;;;7.30;;
31692;SDS011;37436;53.230;6.614;2023-05-10T14:15:16;11.65;;;6.80;;
31692;SDS011;37436;53.230;6.614;2023-05-10T14:20:38;12.75;;;7.43;;
31692;SDS011;37436;53.230;6.614;2023-05-10T14:23:14;10.68;;;6.75;;
31692;SDS011;37436;53.230;6.614;2023-05-10T14:25:46;12.25;;;6.53;;
31692;SDS011;37436;53.230;6.614;2023-05-10T14:28:33;16.75;;;7.82;;
31692;SDS011;37436;53.230;6.614;2023-05-10T14:31:05;12.20;;;6.82;;
31692;SDS011;37436;53.230;6.614;2023-05-10T14:33:41;11.98;;;6.82;;
31692;SDS011;37436;53.230;6.614;2023-05-10T14:36:08;13.90;;;6.78;;
31692;SDS011;37436;53.230;6.614;2023-05-10T14:39:08;11.98;;;6.30;;
31692;SDS011;37436;53.230;6.614;2023-05-10T14:41:58;12.93;;;7.32;;
31692;SDS011;37436;53.230;6.614;2023-05-10T14:47:21;11.65;;;6.75;;
31692;SDS011;37436;53.230;6.614;2023-05-10T14:49:50;15.50;;;7.47;;
31692;SDS011;37436;53.230;6.614;2023-05-10T14:52:16;12.10;;;7.05;;
31692;SDS011;37436;53.230;6.614;2023-05-10T14:54:43;11.10;;;7.28;;
31692;SDS011;37436;53.230;6.614;2023-05-10T14:57:09;12.55;;;7.57;;
31692;SDS011;37436;53.230;6.614;2023-05-10T14:59:37;13.73;;;7.63;;
31692;SDS011;37436;53.230;6.614;2023-05-10T15:02:15;11.63;;;7.85;;
31692;SDS011;37436;53.230;6.614;2023-05-10T15:04:42;17.23;;;8.48;;
31692;SDS011;37436;53.230;6.614;2023-05-10T15:07:08;15.75;;;7.68;;
31692;SDS011;37436;53.230;6.614;2023-05-10T15:09:45;15.35;;;7.88;;
31692;SDS011;37436;53.230;6.614;2023-05-10T15:12:11;15.38;;;7.88;;
31692;SDS011;37436;53.230;6.614;2023-05-10T15:14:46;12.50;;;8.10;;
31692;SDS011;37436;53.230;6.614;2023-05-10T15:17:42;17.67;;;8.80;;
31692;SDS011;37436;53.230;6.614;2023-05-10T15:20:15;14.30;;;8.73;;
31692;SDS011;37436;53.230;6.614;2023-05-10T15:22:41;18.48;;;9.55;;
31692;SDS011;37436;53.230;6.614;2023-05-10T15:25:10;13.80;;;8.32;;
31692;SDS011;37436;53.230;6.614;2023-05-10T15:27:46;15.93;;;9.55;;
31692;SDS011;37436;53.230;6.614;2023-05-10T15:30:24;16.23;;;9.98;;
31692;SDS011;37436;53.230;6.614;2023-05-10T15:32:54;13.77;;;8.60;;
31692;SDS011;37436;53.230;6.614;2023-05-10T15:35:48;13.80;;;8.35;;
31692;SDS011;37436;53.230;6.614;2023-05-10T15:38:20;13.77;;;8.40;;
31692;SDS011;37436;53.230;6.614;2023-05-10T15:43:50;13.82;;;8.23;;
31692;SDS011;37436;53.230;6.614;2023-05-10T15:46:17;13.88;;;8.27;;
31692;SDS011;37436;53.230;6.614;2023-05-10T15:48:46;16.67;;;8.65;;
31692;SDS011;37436;53.230;6.614;2023-05-10T15:51:13;12.77;;;7.90;;
31692;SDS011;37436;53.230;6.614;2023-05-10T15:53:39;13.10;;;7.82;;
31692;SDS011;37436;53.230;6.614;2023-05-10T15:56:12;9.75;;;6.95;;
31692;SDS011;37436;53.230;6.614;2023-05-10T15:58:47;10.70;;;6.50;;
31692;SDS011;37436;53.230;6.614;2023-05-10T16:01:18;10.57;;;6.70;;
31692;SDS011;37436;53.230;6.614;2023-05-10T16:03:50;10.77;;;6.47;;